sensor_id;sensor_type;location;lat;lon;timestamp;P1;durP1;ratioP1;P2;durP2;ratioP2
13455;SDS011;6800;50.940;6.940;2024-01-06T00:00:14;6.87;;;6.27;;
13455;SDS011;6800;50.940;6.940;2024-01-06T00:04:17;6.53;;;5.90;;
13455;SDS011;6800;50.940;6.940;2024-01-06T00:08:19;8.20;;;7.40;;
13455;SDS011;6800;50.940;6.940;2024-01-06T00:12:22;8.80;;;6.43;;
13455;SDS011;6800;50.940;6.940;2024-01-06T00:16:24;7.17;;;6.43;;
13455;SDS011;6800;50.940;6.940;2024-01-06T00:20:29;12.07;;;8.33;;
13455;SDS011;6800;50.940;6.940;2024-01-06T00:24:31;8.40;;;7.23;;
13455;SDS011;6800;50.940;6.940;2024-01-06T00:28:32;9.63;;;8.40;;
13455;SDS011;6800;50.940;6.940;2024-01-06T00:32:34;15.30;;;12.60;;
13455;SDS011;6800;50.940;6.940;2024-01-06T00:36:38;15.07;;;11.63;;
13455;SDS011;6800;50.940;6.940;2024-01-06T00:40:40;9.97;;;8.47;;
13455;SDS011;6800;50.940;6.940;2024-01-06T00:44:41;10.33;;;9.23;;
13455;SDS011;6800;50.940;6.940;2024-01-06T00:48:43;12.50;;;10.43;;
13455;SDS011;6800;50.940;6.940;2024-01-06T00:52:44;9.63;;;8.67;;
13455;SDS011;6800;50.940;6.940;2024-01-06T00:56:46;14.60;;;10.50;;
13455;SDS011;6800;50.940;6.940;2024-01-06T01:00:49;13.80;;;10.37;;
13455;SDS011;6800;50.940;6.940;2024-01-06T01:04:53;13.37;;;12.07;;
13455;SDS011;6800;50.940;6.940;2024-01-06T01:08:54;14.10;;;11.83;;
13455;SDS011;6800;50.940;6.940;2024-01-06T01:12:56;16.10;;;13.07;;
13455;SDS011;6800;50.940;6.940;2024-01-06T01:16:58;21.90;;;14.37;;
13455;SDS011;6800;50.940;6.940;2024-01-06T01:21:00;20.13;;;17.13;;
13455;SDS011;6800;50.940;6.940;2024-01-06T01:25:03;20.23;;;18.03;;
13455;SDS011;6800;50.940;6.940;2024-01-06T01:29:09;18.07;;;14.57;;
13455;SDS011;6800;50.940;6.940;2024-01-06T01:33:12;19.20;;;14.90;;
13455;SDS011;6800;50.940;6.940;2024-01-06T01:37:15;20.97;;;16.40;;
13455;SDS011;6800;50.940;6.940;2024-01-06T01:41:17;20.93;;;15.57;;
13455;SDS011;6800;50.940;6.940;2024-01-06T01:45:18;16.40;;;14.57;;
13455;SDS011;6800;50.940;6.940;2024-01-06T01:49:20;20.00;;;16.00;;
13455;SDS011;6800;50.940;6.940;2024-01-06T01:53:26;18.57;;;15.33;;
13455;SDS011;6800;50.940;6.940;2024-01-06T01:57:29;18.00;;;16.00;;
13455;SDS011;6800;50.940;6.940;2024-01-06T02:01:32;16.10;;;14.40;;
13455;SDS011;6800;50.940;6.940;2024-01-06T02:05:34;26.43;;;18.33;;
13455;SDS011;6800;50.940;6.940;2024-01-06T02:09:36;24.97;;;17.93;;
13455;SDS011;6800;50.940;6.940;2024-01-06T02:13:38;18.50;;;16.57;;
13455;SDS011;6800;50.940;6.940;2024-01-06T02:17:43;19.97;;;17.13;;
13455;SDS011;6800;50.940;6.940;2024-01-06T02:21:48;21.00;;;17.40;;
13455;SDS011;6800;50.940;6.940;2024-01-06T02:25:54;21.70;;;16.67;;
13455;SDS011;6800;50.940;6.940;2024-01-06T02:29:57;20.23;;;15.50;;
13455;SDS011;6800;50.940;6.940;2024-01-06T02:33:59;19.67;;;15.83;;
13455;SDS011;6800;50.940;6.940;2024-01-06T02:38:00;19.50;;;16.33;;
13455;SDS011;6800;50.940;6.940;2024-01-06T02:42:02;21.87;;;16.70;;
13455;SDS011;6800;50.940;6.940;2024-01-06T02:46:06;18.73;;;16.00;;
13455;SDS011;6800;50.940;6.940;2024-01-06T02:50:08;20.93;;;18.50;;
13455;SDS011;6800;50.940;6.940;2024-01-06T02:54:10;26.03;;;21.00;;
13455;SDS011;6800;50.940;6.940;2024-01-06T02:58:13;22.43;;;17.63;;
13455;SDS011;6800;50.940;6.940;2024-01-06T03:02:14;22.97;;;18.20;;
13455;SDS011;6800;50.940;6.940;2024-01-06T03:06:16;24.47;;;18.17;;
13455;SDS011;6800;50.940;6.940;2024-01-06T03:10:17;25.80;;;19.73;;
13455;SDS011;6800;50.940;6.940;2024-01-06T03:14:19;19.67;;;16.97;;
13455;SDS011;6800;50.940;6.940;2024-01-06T03:18:20;22.57;;;17.67;;
13455;SDS011;6800;50.940;6.940;2024-01-06T03:22:22;26.07;;;19.20;;
13455;SDS011;6800;50.940;6.940;2024-01-06T03:26:24;22.73;;;18.43;;
13455;SDS011;6800;50.940;6.940;2024-01-06T03:30:26;24.43;;;18.23;;
13455;SDS011;6800;50.940;6.940;2024-01-06T03:34:30;25.97;;;19.70;;
13455;SDS011;6800;50.940;6.940;2024-01-06T03:38:35;29.73;;;20.67;;
13455;SDS011;6800;50.940;6.940;2024-01-06T03:42:37;28.53;;;20.37;;
13455;SDS011;6800;50.940;6.940;2024-01-06T03:46:40;28.03;;;19.80;;
13455;SDS011;6800;50.940;6.940;2024-01-06T03:50:42;27.07;;;20.20;;
13455;SDS011;6800;50.940;6.940;2024-01-06T03:54:44;27.37;;;19.87;;
13455;SDS011;6800;50.940;6.940;2024-01-06T03:58:46;29.83;;;21.20;;
13455;SDS011;6800;50.940;6.940;2024-01-06T04:02:48;30.37;;;22.13;;
13455;SDS011;6800;50.940;6.940;2024-01-06T04:06:54;33.57;;;22.33;;
13455;SDS011;6800;50.940;6.940;2024-01-06T04:10:56;33.27;;;22.60;;
13455;SDS011;6800;50.940;6.940;2024-01-06T04:14:58;34.87;;;23.63;;
13455;SDS011;6800;50.940;6.940;2024-01-06T04:19:00;37.73;;;25.30;;
13455;SDS011;6800;50.940;6.940;2024-01-06T04:23:03;36.50;;;23.87;;
13455;SDS011;6800;50.940;6.940;2024-01-06T04:27:06;44.23;;;26.60;;
13455;SDS011;6800;50.940;6.940;2024-01-06T04:31:07;42.70;;;26.23;;
13455;SDS011;6800;50.940;6.940;2024-01-06T04:35:12;42.90;;;26.47;;
13455;SDS011;6800;50.940;6.940;2024-01-06T04:39:14;46.43;;;28.47;;
13455;SDS011;6800;50.940;6.940;2024-01-06T04:43:16;53.40;;;30.07;;
13455;SDS011;6800;50.940;6.940;2024-01-06T04:47:17;48.87;;;29.37;;
13455;SDS011;6800;50.940;6.940;2024-01-06T04:51:19;52.63;;;31.17;;
13455;SDS011;6800;50.940;6.940;2024-01-06T04:55:20;49.70;;;28.93;;
13455;SDS011;6800;50.940;6.940;2024-01-06T04:59:23;52.70;;;30.27;;
13455;SDS011;6800;50.940;6.940;2024-01-06T05:03:25;51.00;;;30.70;;
13455;SDS011;6800;50.940;6.940;2024-01-06T05:07:27;51.80;;;31.43;;
13455;SDS011;6800;50.940;6.940;2024-01-06T05:11:29;54.27;;;31.87;;
13455;SDS011;6800;50.940;6.940;2024-01-06T05:15:30;49.60;;;30.20;;
13455;SDS011;6800;50.940;6.940;2024-01-06T05:19:33;47.20;;;27.47;;
13455;SDS011;6800;50.940;6.940;2024-01-06T05:23:35;44.50;;;25.30;;
13455;SDS011;6800;50.940;6.940;2024-01-06T05:27:38;49.57;;;27.60;;
13455;SDS011;6800;50.940;6.940;2024-01-06T05:31:41;41.60;;;25.03;;
13455;SDS011;6800;50.940;6.940;2024-01-06T05:35:45;44.40;;;25.10;;
13455;SDS011;6800;50.940;6.940;2024-01-06T05:39:48;50.00;;;25.60;;
13455;SDS011;6800;50.940;6.940;2024-01-06T05:43:49;40.53;;;22.63;;
13455;SDS011;6800;50.940;6.940;2024-01-06T05:47:51;44.30;;;23.20;;
13455;SDS011;6800;50.940;6.940;2024-01-06T05:51:53;41.83;;;21.80;;
13455;SDS011;6800;50.940;6.940;2024-01-06T05:55:54;33.37;;;19.77;;
13455;SDS011;6800;50.940;6.940;2024-01-06T05:59:56;37.97;;;20.90;;
13455;SDS011;6800;50.940;6.940;2024-01-06T06:03:58;38.77;;;20.87;;
13455;SDS011;6800;50.940;6.940;2024-01-06T06:08:00;36.23;;;20.63;;
13455;SDS011;6800;50.940;6.940;2024-01-06T06:12:02;40.83;;;20.43;;
13455;SDS011;6800;50.940;6.940;2024-01-06T06:16:04;30.37;;;16.93;;
13455;SDS011;6800;50.940;6.940;2024-01-06T06:20:06;36.40;;;18.17;;
13455;SDS011;6800;50.940;6.940;2024-01-06T06:24:08;32.00;;;16.63;;
13455;SDS011;6800;50.940;6.940;2024-01-06T06:28:17;27.00;;;15.03;;
13455;SDS011;6800;50.940;6.940;2024-01-06T06:32:20;25.80;;;14.03;;
13455;SDS011;6800;50.940;6.940;2024-01-06T06:36:21;26.70;;;16.73;;
13455;SDS011;6800;50.940;6.940;2024-01-06T06:40:23;28.03;;;15.23;;
13455;SDS011;6800;50.940;6.940;2024-01-06T06:44:25;32.83;;;16.13;;
13455;SDS011;6800;50.940;6.940;2024-01-06T06:48:26;29.43;;;16.37;;
13455;SDS011;6800;50.940;6.940;2024-01-06T06:52:28;31.63;;;16.20;;
13455;SDS011;6800;50.940;6.940;2024-01-06T06:56:30;31.87;;;16.43;;
13455;SDS011;6800;50.940;6.940;2024-01-06T07:00:33;30.47;;;16.53;;
13455;SDS011;6800;50.940;6.940;2024-01-06T07:04:36;30.50;;;15.97;;
13455;SDS011;6800;50.940;6.940;2024-01-06T07:08:38;33.50;;;16.77;;
13455;SDS011;6800;50.940;6.940;2024-01-06T07:12:41;31.70;;;16.53;;
13455;SDS011;6800;50.940;6.940;2024-01-06T07:16:43;32.77;;;16.80;;
13455;SDS011;6800;50.940;6.940;2024-01-06T07:20:47;31.37;;;16.57;;
13455;SDS011;6800;50.940;6.940;2024-01-06T07:24:49;30.00;;;16.87;;
13455;SDS011;6800;50.940;6.940;2024-01-06T07:28:51;31.10;;;16.37;;
13455;SDS011;6800;50.940;6.940;2024-01-06T07:32:52;30.23;;;16.80;;
13455;SDS011;6800;50.940;6.940;2024-01-06T07:36:54;32.63;;;16.90;;
13455;SDS011;6800;50.940;6.940;2024-01-06T07:40:57;30.33;;;17.03;;
13455;SDS011;6800;50.940;6.940;2024-01-06T07:44:58;27.80;;;15.87;;
13455;SDS011;6800;50.940;6.940;2024-01-06T07:49:03;32.27;;;16.90;;
13455;SDS011;6800;50.940;6.940;2024-01-06T07:53:06;32.33;;;16.53;;
13455;SDS011;6800;50.940;6.940;2024-01-06T07:57:07;28.80;;;16.13;;
13455;SDS011;6800;50.940;6.940;2024-01-06T08:01:09;28.80;;;17.23;;
13455;SDS011;6800;50.940;6.940;2024-01-06T08:05:11;31.90;;;18.00;;
13455;SDS011;6800;50.940;6.940;2024-01-06T08:09:12;31.07;;;16.77;;
13455;SDS011;6800;50.940;6.940;2024-01-06T08:13:14;27.80;;;16.60;;
13455;SDS011;6800;50.940;6.940;2024-01-06T08:17:16;29.10;;;16.10;;
13455;SDS011;6800;50.940;6.940;2024-01-06T08:21:19;28.80;;;16.67;;
13455;SDS011;6800;50.940;6.940;2024-01-06T08:25:22;29.07;;;16.00;;
13455;SDS011;6800;50.940;6.940;2024-01-06T08:29:25;28.07;;;15.97;;
13455;SDS011;6800;50.940;6.940;2024-01-06T08:33:28;28.43;;;17.90;;
13455;SDS011;6800;50.940;6.940;2024-01-06T08:37:31;27.50;;;16.70;;
13455;SDS011;6800;50.940;6.940;2024-01-06T08:41:33;26.20;;;15.70;;
13455;SDS011;6800;50.940;6.940;2024-01-06T08:45:38;24.60;;;15.60;;
13455;SDS011;6800;50.940;6.940;2024-01-06T08:49:39;24.83;;;15.13;;
13455;SDS011;6800;50.940;6.940;2024-01-06T08:53:42;24.67;;;15.60;;
13455;SDS011;6800;50.940;6.940;2024-01-06T08:57:44;26.93;;;16.50;;
13455;SDS011;6800;50.940;6.940;2024-01-06T09:01:48;25.03;;;16.43;;
13455;SDS011;6800;50.940;6.940;2024-01-06T09:05:51;24.73;;;15.17;;
13455;SDS011;6800;50.940;6.940;2024-01-06T09:09:53;25.03;;;14.40;;
13455;SDS011;6800;50.940;6.940;2024-01-06T09:13:55;23.57;;;15.57;;
13455;SDS011;6800;50.940;6.940;2024-01-06T09:17:57;23.10;;;15.37;;
13455;SDS011;6800;50.940;6.940;2024-01-06T09:21:58;22.70;;;15.43;;
13455;SDS011;6800;50.940;6.940;2024-01-06T09:26:02;18.63;;;13.60;;
13455;SDS011;6800;50.940;6.940;2024-01-06T09:30:06;17.20;;;12.47;;
13455;SDS011;6800;50.940;6.940;2024-01-06T09:34:10;18.70;;;13.70;;
13455;SDS011;6800;50.940;6.940;2024-01-06T09:38:13;18.83;;;13.23;;
13455;SDS011;6800;50.940;6.940;2024-01-06T09:42:15;18.90;;;13.90;;
13455;SDS011;6800;50.940;6.940;2024-01-06T09:50:29;17.00;;;13.20;;
13455;SDS011;6800;50.940;6.940;2024-01-06T09:54:32;18.63;;;13.20;;
13455;SDS011;6800;50.940;6.940;2024-01-06T09:58:40;18.97;;;13.27;;
13455;SDS011;6800;50.940;6.940;2024-01-06T10:02:46;17.23;;;12.47;;
13455;SDS011;6800;50.940;6.940;2024-01-06T10:06:50;18.10;;;13.40;;
13455;SDS011;6800;50.940;6.940;2024-01-06T10:10:52;17.93;;;12.70;;
13455;SDS011;6800;50.940;6.940;2024-01-06T10:14:54;16.60;;;11.70;;
13455;SDS011;6800;50.940;6.940;2024-01-06T10:18:56;15.80;;;12.30;;
13455;SDS011;6800;50.940;6.940;2024-01-06T10:22:58;17.07;;;12.93;;
13455;SDS011;6800;50.940;6.940;2024-01-06T10:27:06;17.13;;;11.70;;
13455;SDS011;6800;50.940;6.940;2024-01-06T10:31:10;16.03;;;12.13;;
13455;SDS011;6800;50.940;6.940;2024-01-06T10:35:12;13.30;;;10.37;;
13455;SDS011;6800;50.940;6.940;2024-01-06T10:39:14;15.63;;;12.60;;
13455;SDS011;6800;50.940;6.940;2024-01-06T10:43:17;13.17;;;10.77;;
13455;SDS011;6800;50.940;6.940;2024-01-06T10:47:20;15.43;;;11.00;;
13455;SDS011;6800;50.940;6.940;2024-01-06T10:51:22;13.60;;;10.30;;
13455;SDS011;6800;50.940;6.940;2024-01-06T10:55:27;14.93;;;10.80;;
13455;SDS011;6800;50.940;6.940;2024-01-06T10:59:29;13.47;;;10.47;;
13455;SDS011;6800;50.940;6.940;2024-01-06T11:03:34;13.73;;;10.80;;
13455;SDS011;6800;50.940;6.940;2024-01-06T11:07:39;13.93;;;10.83;;
13455;SDS011;6800;50.940;6.940;2024-01-06T11:11:42;14.23;;;10.07;;
13455;SDS011;6800;50.940;6.940;2024-01-06T11:15:50;13.20;;;10.57;;
13455;SDS011;6800;50.940;6.940;2024-01-06T11:20:04;13.53;;;11.00;;
13455;SDS011;6800;50.940;6.940;2024-01-06T11:24:11;12.90;;;10.43;;
13455;SDS011;6800;50.940;6.940;2024-01-06T11:28:18;13.13;;;9.97;;
13455;SDS011;6800;50.940;6.940;2024-01-06T11:36:27;15.83;;;11.00;;
13455;SDS011;6800;50.940;6.940;2024-01-06T11:40:31;14.00;;;10.73;;
13455;SDS011;6800;50.940;6.940;2024-01-06T11:44:39;13.57;;;10.23;;
13455;SDS011;6800;50.940;6.940;2024-01-06T11:48:48;12.73;;;9.63;;
13455;SDS011;6800;50.940;6.940;2024-01-06T11:52:54;15.90;;;12.20;;
13455;SDS011;6800;50.940;6.940;2024-01-06T11:56:56;15.40;;;11.07;;
13455;SDS011;6800;50.940;6.940;2024-01-06T12:00:59;13.33;;;11.40;;
13455;SDS011;6800;50.940;6.940;2024-01-06T12:05:02;12.87;;;9.93;;
13455;SDS011;6800;50.940;6.940;2024-01-06T12:09:04;13.67;;;10.40;;
13455;SDS011;6800;50.940;6.940;2024-01-06T12:13:06;15.50;;;11.33;;
13455;SDS011;6800;50.940;6.940;2024-01-06T12:17:14;17.27;;;12.80;;
13455;SDS011;6800;50.940;6.940;2024-01-06T12:21:16;18.77;;;13.00;;
13455;SDS011;6800;50.940;6.940;2024-01-06T12:25:22;18.00;;;13.17;;
13455;SDS011;6800;50.940;6.940;2024-01-06T12:29:26;19.63;;;13.67;;
13455;SDS011;6800;50.940;6.940;2024-01-06T12:33:31;18.40;;;12.77;;
13455;SDS011;6800;50.940;6.940;2024-01-06T12:37:38;19.30;;;14.73;;
13455;SDS011;6800;50.940;6.940;2024-01-06T12:41:44;19.93;;;13.47;;
13455;SDS011;6800;50.940;6.940;2024-01-06T12:45:47;17.30;;;12.40;;
13455;SDS011;6800;50.940;6.940;2024-01-06T12:49:51;18.97;;;12.63;;
13455;SDS011;6800;50.940;6.940;2024-01-06T12:53:52;19.73;;;12.57;;
13455;SDS011;6800;50.940;6.940;2024-01-06T12:57:54;19.27;;;13.10;;
13455;SDS011;6800;50.940;6.940;2024-01-06T13:01:56;21.70;;;13.40;;
13455;SDS011;6800;50.940;6.940;2024-01-06T13:05:59;21.83;;;13.80;;
13455;SDS011;6800;50.940;6.940;2024-01-06T13:10:02;24.63;;;14.60;;
13455;SDS011;6800;50.940;6.940;2024-01-06T13:14:04;23.53;;;14.23;;
13455;SDS011;6800;50.940;6.940;2024-01-06T13:18:06;21.20;;;13.40;;
13455;SDS011;6800;50.940;6.940;2024-01-06T13:22:08;23.97;;;14.80;;
13455;SDS011;6800;50.940;6.940;2024-01-06T13:26:11;21.33;;;14.13;;
13455;SDS011;6800;50.940;6.940;2024-01-06T13:30:13;24.23;;;15.33;;
13455;SDS011;6800;50.940;6.940;2024-01-06T13:34:19;22.80;;;15.63;;
13455;SDS011;6800;50.940;6.940;2024-01-06T13:38:21;23.40;;;15.60;;
13455;SDS011;6800;50.940;6.940;2024-01-06T13:42:23;23.40;;;15.37;;
13455;SDS011;6800;50.940;6.940;2024-01-06T13:46:26;27.93;;;18.80;;
13455;SDS011;6800;50.940;6.940;2024-01-06T13:50:28;26.00;;;17.03;;
13455;SDS011;6800;50.940;6.940;2024-01-06T13:54:30;26.43;;;17.50;;
13455;SDS011;6800;50.940;6.940;2024-01-06T13:58:32;27.07;;;17.53;;
13455;SDS011;6800;50.940;6.940;2024-01-06T14:02:34;26.20;;;16.73;;
13455;SDS011;6800;50.940;6.940;2024-01-06T14:06:36;24.07;;;15.50;;
13455;SDS011;6800;50.940;6.940;2024-01-06T14:10:39;26.57;;;17.43;;
13455;SDS011;6800;50.940;6.940;2024-01-06T14:14:41;29.43;;;20.10;;
13455;SDS011;6800;50.940;6.940;2024-01-06T14:18:47;29.20;;;19.13;;
13455;SDS011;6800;50.940;6.940;2024-01-06T14:22:49;30.33;;;19.50;;
13455;SDS011;6800;50.940;6.940;2024-01-06T14:26:53;27.47;;;19.20;;
13455;SDS011;6800;50.940;6.940;2024-01-06T14:30:57;30.73;;;19.53;;
13455;SDS011;6800;50.940;6.940;2024-01-06T14:34:58;30.83;;;19.50;;
13455;SDS011;6800;50.940;6.940;2024-01-06T14:39:00;27.70;;;18.13;;
13455;SDS011;6800;50.940;6.940;2024-01-06T14:43:02;29.50;;;18.67;;
13455;SDS011;6800;50.940;6.940;2024-01-06T14:47:09;30.30;;;19.37;;
13455;SDS011;6800;50.940;6.940;2024-01-06T14:51:10;28.57;;;17.67;;
13455;SDS011;6800;50.940;6.940;2024-01-06T14:55:11;26.30;;;18.03;;
13455;SDS011;6800;50.940;6.940;2024-01-06T14:59:14;28.43;;;18.90;;
13455;SDS011;6800;50.940;6.940;2024-01-06T15:03:21;30.33;;;19.53;;
13455;SDS011;6800;50.940;6.940;2024-01-06T15:07:25;32.43;;;20.30;;
13455;SDS011;6800;50.940;6.940;2024-01-06T15:11:26;29.83;;;20.63;;
13455;SDS011;6800;50.940;6.940;2024-01-06T15:15:29;33.97;;;20.47;;
13455;SDS011;6800;50.940;6.940;2024-01-06T15:19:31;34.17;;;21.03;;
13455;SDS011;6800;50.940;6.940;2024-01-06T15:23:34;34.77;;;21.87;;
13455;SDS011;6800;50.940;6.940;2024-01-06T15:27:36;36.93;;;21.67;;
13455;SDS011;6800;50.940;6.940;2024-01-06T15:31:43;37.07;;;21.27;;
13455;SDS011;6800;50.940;6.940;2024-01-06T15:35:46;32.27;;;20.27;;
13455;SDS011;6800;50.940;6.940;2024-01-06T15:39:48;35.23;;;21.20;;
13455;SDS011;6800;50.940;6.940;2024-01-06T15:43:51;36.93;;;23.37;;
13455;SDS011;6800;50.940;6.940;2024-01-06T15:47:53;39.00;;;22.63;;
13455;SDS011;6800;50.940;6.940;2024-01-06T15:51:57;40.00;;;23.53;;
13455;SDS011;6800;50.940;6.940;2024-01-06T15:56:00;41.33;;;23.93;;
13455;SDS011;6800;50.940;6.940;2024-01-06T16:00:03;47.87;;;27.20;;
13455;SDS011;6800;50.940;6.940;2024-01-06T16:04:05;52.23;;;30.23;;
13455;SDS011;6800;50.940;6.940;2024-01-06T16:08:07;52.07;;;29.47;;
13455;SDS011;6800;50.940;6.940;2024-01-06T16:12:10;54.30;;;31.53;;
13455;SDS011;6800;50.940;6.940;2024-01-06T16:16:12;45.27;;;27.50;;
13455;SDS011;6800;50.940;6.940;2024-01-06T16:20:14;45.67;;;28.27;;
13455;SDS011;6800;50.940;6.940;2024-01-06T16:24:17;46.93;;;26.23;;
13455;SDS011;6800;50.940;6.940;2024-01-06T16:28:21;46.43;;;26.87;;
13455;SDS011;6800;50.940;6.940;2024-01-06T16:32:23;48.67;;;28.07;;
13455;SDS011;6800;50.940;6.940;2024-01-06T16:36:24;41.03;;;23.60;;
13455;SDS011;6800;50.940;6.940;2024-01-06T16:40:26;41.17;;;24.40;;
13455;SDS011;6800;50.940;6.940;2024-01-06T16:44:28;34.87;;;21.37;;
13455;SDS011;6800;50.940;6.940;2024-01-06T16:48:35;34.80;;;21.07;;
13455;SDS011;6800;50.940;6.940;2024-01-06T16:52:38;34.63;;;19.67;;
13455;SDS011;6800;50.940;6.940;2024-01-06T16:56:41;30.90;;;19.73;;
13455;SDS011;6800;50.940;6.940;2024-01-06T17:00:47;29.43;;;19.60;;
13455;SDS011;6800;50.940;6.940;2024-01-06T17:04:49;38.77;;;21.87;;
13455;SDS011;6800;50.940;6.940;2024-01-06T17:08:51;42.07;;;23.90;;
13455;SDS011;6800;50.940;6.940;2024-01-06T17:12:53;46.47;;;24.77;;
13455;SDS011;6800;50.940;6.940;2024-01-06T17:16:55;44.50;;;26.97;;
13455;SDS011;6800;50.940;6.940;2024-01-06T17:20:57;51.17;;;27.87;;
13455;SDS011;6800;50.940;6.940;2024-01-06T17:24:59;52.47;;;30.50;;
13455;SDS011;6800;50.940;6.940;2024-01-06T17:29:01;54.80;;;29.63;;
13455;SDS011;6800;50.940;6.940;2024-01-06T17:33:06;56.07;;;31.63;;
13455;SDS011;6800;50.940;6.940;2024-01-06T17:37:17;55.50;;;30.23;;
13455;SDS011;6800;50.940;6.940;2024-01-06T17:41:19;54.23;;;30.73;;
13455;SDS011;6800;50.940;6.940;2024-01-06T17:45:21;55.10;;;29.43;;
13455;SDS011;6800;50.940;6.940;2024-01-06T17:49:23;54.80;;;31.53;;
13455;SDS011;6800;50.940;6.940;2024-01-06T17:53:28;54.83;;;30.27;;
13455;SDS011;6800;50.940;6.940;2024-01-06T17:57:30;54.30;;;32.37;;
13455;SDS011;6800;50.940;6.940;2024-01-06T18:01:36;59.30;;;32.77;;
13455;SDS011;6800;50.940;6.940;2024-01-06T18:05:38;63.33;;;34.43;;
13455;SDS011;6800;50.940;6.940;2024-01-06T18:09:40;57.33;;;33.47;;
13455;SDS011;6800;50.940;6.940;2024-01-06T18:13:42;68.60;;;35.30;;
13455;SDS011;6800;50.940;6.940;2024-01-06T18:17:43;60.43;;;34.07;;
13455;SDS011;6800;50.940;6.940;2024-01-06T18:21:46;61.73;;;35.33;;
13455;SDS011;6800;50.940;6.940;2024-01-06T18:25:48;61.83;;;35.53;;
13455;SDS011;6800;50.940;6.940;2024-01-06T18:29:50;69.03;;;37.13;;
13455;SDS011;6800;50.940;6.940;2024-01-06T18:33:52;65.40;;;36.93;;
13455;SDS011;6800;50.940;6.940;2024-01-06T18:37:53;67.83;;;36.77;;
13455;SDS011;6800;50.940;6.940;2024-01-06T18:41:55;71.63;;;37.10;;
13455;SDS011;6800;50.940;6.940;2024-01-06T18:45:57;66.20;;;35.00;;
13455;SDS011;6800;50.940;6.940;2024-01-06T18:50:00;63.13;;;34.63;;
13455;SDS011;6800;50.940;6.940;2024-01-06T18:54:06;64.67;;;33.57;;
13455;SDS011;6800;50.940;6.940;2024-01-06T18:58:08;62.53;;;34.67;;
13455;SDS011;6800;50.940;6.940;2024-01-06T19:02:10;65.10;;;36.03;;
13455;SDS011;6800;50.940;6.940;2024-01-06T19:06:13;65.83;;;36.33;;
13455;SDS011;6800;50.940;6.940;2024-01-06T19:10:15;65.90;;;37.07;;
13455;SDS011;6800;50.940;6.940;2024-01-06T19:14:17;58.70;;;33.47;;
13455;SDS011;6800;50.940;6.940;2024-01-06T19:18:18;64.57;;;33.40;;
13455;SDS011;6800;50.940;6.940;2024-01-06T19:22:20;65.77;;;34.63;;
13455;SDS011;6800;50.940;6.940;2024-01-06T19:26:23;60.73;;;34.07;;
13455;SDS011;6800;50.940;6.940;2024-01-06T19:30:25;53.73;;;29.27;;
13455;SDS011;6800;50.940;6.940;2024-01-06T19:34:27;51.00;;;28.53;;
13455;SDS011;6800;50.940;6.940;2024-01-06T19:38:29;48.77;;;26.90;;
13455;SDS011;6800;50.940;6.940;2024-01-06T19:42:31;48.93;;;25.90;;
13455;SDS011;6800;50.940;6.940;2024-01-06T19:46:33;46.50;;;26.17;;
13455;SDS011;6800;50.940;6.940;2024-01-06T19:50:36;47.23;;;25.50;;
13455;SDS011;6800;50.940;6.940;2024-01-06T19:54:38;49.80;;;27.57;;
13455;SDS011;6800;50.940;6.940;2024-01-06T19:58:42;46.80;;;25.90;;
13455;SDS011;6800;50.940;6.940;2024-01-06T20:02:43;45.87;;;24.40;;
13455;SDS011;6800;50.940;6.940;2024-01-06T20:06:47;46.23;;;26.80;;
13455;SDS011;6800;50.940;6.940;2024-01-06T20:10:49;44.27;;;23.80;;
13455;SDS011;6800;50.940;6.940;2024-01-06T20:14:50;40.10;;;25.27;;
13455;SDS011;6800;50.940;6.940;2024-01-06T20:18:58;45.23;;;26.60;;
13455;SDS011;6800;50.940;6.940;2024-01-06T20:23:01;41.30;;;24.33;;
13455;SDS011;6800;50.940;6.940;2024-01-06T20:27:03;43.17;;;25.83;;
13455;SDS011;6800;50.940;6.940;2024-01-06T20:31:06;42.47;;;25.93;;
13455;SDS011;6800;50.940;6.940;2024-01-06T20:35:08;42.57;;;25.83;;
13455;SDS011;6800;50.940;6.940;2024-01-06T20:39:10;44.17;;;24.57;;
13455;SDS011;6800;50.940;6.940;2024-01-06T20:43:15;45.07;;;26.60;;
13455;SDS011;6800;50.940;6.940;2024-01-06T20:47:17;43.33;;;25.70;;
13455;SDS011;6800;50.940;6.940;2024-01-06T20:51:18;38.73;;;23.97;;
13455;SDS011;6800;50.940;6.940;2024-01-06T20:55:20;37.30;;;24.93;;
13455;SDS011;6800;50.940;6.940;2024-01-06T20:59:22;40.40;;;24.63;;
13455;SDS011;6800;50.940;6.940;2024-01-06T21:03:23;38.63;;;24.57;;
13455;SDS011;6800;50.940;6.940;2024-01-06T21:07:25;41.97;;;25.70;;
13455;SDS011;6800;50.940;6.940;2024-01-06T21:11:26;40.83;;;26.23;;
13455;SDS011;6800;50.940;6.940;2024-01-06T21:15:30;48.30;;;28.00;;
13455;SDS011;6800;50.940;6.940;2024-01-06T21:19:32;46.83;;;26.50;;
13455;SDS011;6800;50.940;6.940;2024-01-06T21:23:34;47.23;;;28.57;;
13455;SDS011;6800;50.940;6.940;2024-01-06T21:27:48;44.00;;;27.63;;
13455;SDS011;6800;50.940;6.940;2024-01-06T21:31:54;45.03;;;29.10;;
13455;SDS011;6800;50.940;6.940;2024-01-06T21:35:55;38.63;;;25.50;;
13455;SDS011;6800;50.940;6.940;2024-01-06T21:39:57;40.57;;;26.67;;
13455;SDS011;6800;50.940;6.940;2024-01-06T21:44:08;41.57;;;27.40;;
13455;SDS011;6800;50.940;6.940;2024-01-06T21:48:11;41.77;;;27.40;;
13455;SDS011;6800;50.940;6.940;2024-01-06T21:52:14;41.90;;;26.83;;
13455;SDS011;6800;50.940;6.940;2024-01-06T21:56:15;39.37;;;26.67;;
13455;SDS011;6800;50.940;6.940;2024-01-06T22:00:18;37.43;;;26.50;;
13455;SDS011;6800;50.940;6.940;2024-01-06T22:04:22;39.17;;;26.77;;
13455;SDS011;6800;50.940;6.940;2024-01-06T22:08:25;38.03;;;25.10;;
13455;SDS011;6800;50.940;6.940;2024-01-06T22:12:27;40.23;;;26.43;;
13455;SDS011;6800;50.940;6.940;2024-01-06T22:16:29;38.93;;;25.80;;
13455;SDS011;6800;50.940;6.940;2024-01-06T22:20:34;38.13;;;25.80;;
13455;SDS011;6800;50.940;6.940;2024-01-06T22:24:36;37.60;;;26.77;;
13455;SDS011;6800;50.940;6.940;2024-01-06T22:28:37;38.23;;;26.40;;
13455;SDS011;6800;50.940;6.940;2024-01-06T22:32:40;42.50;;;27.87;;
13455;SDS011;6800;50.940;6.940;2024-01-06T22:36:42;37.20;;;26.53;;
13455;SDS011;6800;50.940;6.940;2024-01-06T22:40:44;36.17;;;24.90;;
13455;SDS011;6800;50.940;6.940;2024-01-06T22:44:45;39.53;;;25.90;;
13455;SDS011;6800;50.940;6.940;2024-01-06T22:48:47;36.53;;;24.87;;
13455;SDS011;6800;50.940;6.940;2024-01-06T22:52:49;36.47;;;25.40;;
13455;SDS011;6800;50.940;6.940;2024-01-06T22:57:04;39.17;;;25.27;;
13455;SDS011;6800;50.940;6.940;2024-01-06T23:01:06;37.77;;;26.17;;
13455;SDS011;6800;50.940;6.940;2024-01-06T23:05:08;35.50;;;24.77;;
13455;SDS011;6800;50.940;6.940;2024-01-06T23:09:10;35.83;;;25.63;;
13455;SDS011;6800;50.940;6.940;2024-01-06T23:13:13;43.70;;;28.90;;
13455;SDS011;6800;50.940;6.940;2024-01-06T23:17:14;33.57;;;24.17;;
13455;SDS011;6800;50.940;6.940;2024-01-06T23:21:16;35.13;;;24.40;;
13455;SDS011;6800;50.940;6.940;2024-01-06T23:25:18;33.10;;;24.10;;
13455;SDS011;6800;50.940;6.940;2024-01-06T23:29:21;37.57;;;25.60;;
13455;SDS011;6800;50.940;6.940;2024-01-06T23:33:25;35.80;;;24.67;;
13455;SDS011;6800;50.940;6.940;2024-01-06T23:37:26;37.27;;;26.30;;
13455;SDS011;6800;50.940;6.940;2024-01-06T23:41:28;37.10;;;25.53;;
13455;SDS011;6800;50.940;6.940;2024-01-06T23:45:29;36.20;;;26.63;;
13455;SDS011;6800;50.940;6.940;2024-01-06T23:49:31;37.53;;;26.53;;
13455;SDS011;6800;50.940;6.940;2024-01-06T23:53:33;38.13;;;25.53;;
13455;SDS011;6800;50.940;6.940;2024-01-06T23:57:39;42.90;;;28.93;;
